Terminal Aerodrome Forecast
Issued by NWS Austin/San Antonio, TX

Home | Current Version | Previous Version | Text Only | Print | Product List | Glossary On
Versions: 1 2 3 4 5 6 7 8 9 10 11 12 13 14 15 16 17 18
000
FTUS44 KEWX 250500
TAFAUS
TAF
KAUS 250538Z 2506/2612 22004KT P6SM SKC
     FM251200 18005KT P6SM SKC
     FM251600 19013G22KT P6SM FEW250
     FM251900 19019G25KT P6SM FEW250
     FM260600 18012KT P6SM SCT010 BKN040
     FM261100 18008KT P6SM BKN010 OVC025=

USA.gov is the U.S. government's official web portal to all federal, state and local government web resources and services.